Time;durP1;ratioP1;P1;durP2;ratioP2;P2;SDS_P1;SDS_P2;PMS_P1;PMS_P2;Temp;Humidity;BMP_temperature;BMP_pressure;BME280_temperature;BME280_humidity;BME280_pressure;Samples;Min_cycle;Max_cycle;Signal;HPM_P1;HPM_P2
2023/04/27 00:01:13;;;;;;;6.18;2.45;;;;;;;5.82;60.09;101274.56;7397819;19;20432;-69
2023/04/27 00:03:44;;;;;;;7.47;3.08;;;;;;;5.82;60.24;101271.94;7398779;19;20385;-69
2023/04/27 00:06:13;;;;;;;2.58;2.00;;;;;;;5.83;60.08;101272.84;7401024;19;20042;-70
2023/04/27 00:08:41;;;;;;;7.30;2.67;;;;;;;5.81;60.18;101269.34;7400506;19;20018;-69
2023/04/27 00:11:10;;;;;;;3.25;2.10;;;;;;;5.81;60.15;101275.44;7397972;19;20026;-69
2023/04/27 00:13:38;;;;;;;5.90;2.50;;;;;;;5.78;60.39;101270.19;7398582;19;20041;-70
2023/04/27 00:16:07;;;;;;;3.38;2.47;;;;;;;5.78;60.45;101266.72;7399869;19;20408;-70
2023/04/27 00:18:36;;;;;;;5.22;2.55;;;;;;;5.74;60.42;101265.84;7399841;19;20014;-70
2023/04/27 00:21:08;;;;;;;5.05;2.50;;;;;;;5.73;60.39;101263.22;7398594;19;20015;-70
2023/04/27 00:23:36;;;;;;;6.90;2.58;;;;;;;5.74;60.42;101267.56;7397124;19;20364;-70
2023/04/27 00:26:05;;;;;;;3.92;2.30;;;;;;;5.71;60.70;101264.09;7399881;19;20014;-71
2023/04/27 00:28:33;;;;;;;5.97;2.40;;;;;;;5.70;60.60;101269.28;7395233;19;20018;-70
2023/04/27 00:31:02;;;;;;;3.55;2.38;;;;;;;5.68;60.74;101269.25;7399782;19;20024;-70
2023/04/27 00:33:31;;;;;;;6.75;2.60;;;;;;;5.67;60.88;101266.66;7398517;19;20014;-70
2023/04/27 00:36:02;;;;;;;7.22;2.70;;;;;;;5.65;60.83;101274.47;7397272;19;20022;-71
2023/04/27 00:38:33;;;;;;;5.20;2.63;;;;;;;5.63;60.80;101265.75;7399091;19;20014;-70
2023/04/27 00:41:05;;;;;;;5.47;2.83;;;;;;;5.61;61.49;101267.50;7399064;19;20039;-69
2023/04/27 00:43:34;;;;;;;6.28;2.75;;;;;;;5.58;61.30;101264.84;7398115;19;20086;-70
2023/04/27 00:46:03;;;;;;;4.35;2.22;;;;;;;5.52;61.27;101264.81;7398997;19;20493;-68
2023/04/27 00:48:31;;;;;;;3.47;2.67;;;;;;;5.55;61.26;101270.06;7400399;19;20031;-68
2023/04/27 00:51:00;;;;;;;4.45;2.45;;;;;;;5.55;61.43;101270.06;7400042;19;20379;-68
2023/04/27 00:53:29;;;;;;;8.63;2.40;;;;;;;5.53;61.43;101274.34;7397757;19;20014;-67
2023/04/27 00:56:01;;;;;;;3.65;2.42;;;;;;;5.53;61.51;101269.16;7398567;19;20382;-68
2023/04/27 00:58:29;;;;;;;7.18;2.67;;;;;;;5.52;61.53;101267.41;7399268;19;20035;-68
2023/04/27 01:00:58;;;;;;;3.88;2.22;;;;;;;5.52;61.29;101275.22;7396049;19;20082;-68
2023/04/27 01:03:26;;;;;;;5.78;2.50;;;;;;;5.52;61.58;101277.81;7396463;19;20015;-67
2023/04/27 01:05:55;;;;;;;5.90;2.47;;;;;;;5.52;61.57;101283.03;7398176;19;20432;-68
2023/04/27 01:08:24;;;;;;;6.47;2.60;;;;;;;5.50;61.73;101282.16;7398153;19;20015;-67
2023/04/27 01:10:52;;;;;;;6.03;2.60;;;;;;;5.47;61.88;101280.41;7396262;19;20031;-67
2023/04/27 01:13:23;;;;;;;3.80;2.70;;;;;;;5.47;62.07;101274.31;7398217;19;20022;-66
2023/04/27 01:15:52;;;;;;;4.10;2.30;;;;;;;5.47;61.97;101282.13;7398840;19;20025;-67
2023/04/27 01:18:21;;;;;;;7.32;2.45;;;;;;;5.46;62.17;101282.97;7398121;19;20018;-67
2023/04/27 01:20:49;;;;;;;4.53;2.63;;;;;;;5.45;62.17;101276.03;7397727;19;20015;-67
2023/04/27 01:23:20;;;;;;;6.90;2.63;;;;;;;5.45;62.17;101279.50;7396473;19;20023;-67
2023/04/27 01:25:49;;;;;;;5.07;2.20;;;;;;;5.44;62.16;101277.75;7398223;19;20015;-67
2023/04/27 01:28:17;;;;;;;7.20;2.70;;;;;;;5.44;62.14;101285.56;7397438;19;20010;-67
2023/04/27 01:30:46;;;;;;;5.18;3.13;;;;;;;5.44;62.11;101279.50;7397704;19;20014;-68
2023/04/27 01:33:14;;;;;;;4.70;2.97;;;;;;;5.43;62.46;101277.75;7396895;19;20023;-67
2023/04/27 01:35:43;;;;;;;6.13;2.70;;;;;;;5.42;62.33;101278.59;7397141;19;20063;-68
2023/04/27 01:38:11;;;;;;;5.72;2.58;;;;;;;5.42;62.36;101282.09;7397079;19;20027;-67
2023/04/27 01:40:43;;;;;;;2.70;2.28;;;;;;;5.41;62.64;101280.34;7396823;19;20032;-67
2023/04/27 01:43:11;;;;;;;4.57;2.30;;;;;;;5.39;62.55;101290.72;7395801;19;20039;-67
2023/04/27 01:45:39;;;;;;;4.50;2.38;;;;;;;5.38;62.64;101293.31;7397223;19;20071;-67
2023/04/27 01:48:08;;;;;;;4.70;2.50;;;;;;;5.38;62.80;101291.59;7396803;19;20419;-67
2023/04/27 01:50:36;;;;;;;3.00;2.08;;;;;;;5.36;62.70;101295.91;7394968;19;20091;-67
2023/04/27 01:53:05;;;;;;;3.25;2.28;;;;;;;5.36;62.82;101297.66;7395105;19;20039;-68
2023/04/27 01:55:33;;;;;;;5.68;2.45;;;;;;;5.34;63.06;101295.03;7395200;19;20018;-67
2023/04/27 01:58:05;;;;;;;4.50;2.40;;;;;;;5.34;62.99;101300.22;7398772;19;20031;-68
2023/04/27 02:00:33;;;;;;;4.50;2.58;;;;;;;5.35;62.98;101303.72;7397392;19;20477;-67
2023/04/27 02:03:02;;;;;;;6.28;3.15;;;;;;;5.34;63.16;101300.22;7395874;19;20376;-67
2023/04/27 02:05:30;;;;;;;7.63;2.33;;;;;;;5.34;63.28;101300.22;7396245;19;20489;-67
2023/04/27 02:07:59;;;;;;;9.65;3.42;;;;;;;5.33;63.29;101302.81;7394420;19;20027;-67
2023/04/27 02:10:27;;;;;;;7.35;2.90;;;;;;;5.32;63.37;101304.56;7394775;19;20018;-68
2023/04/27 02:12:56;;;;;;;5.68;2.50;;;;;;;5.32;63.47;101307.16;7394552;19;20018;-67
2023/04/27 02:15:27;;;;;;;4.75;2.42;;;;;;;5.32;63.40;101311.47;7396349;19;20018;-67
2023/04/27 02:17:56;;;;;;;5.25;3.45;;;;;;;5.31;63.48;101305.41;7397947;19;20041;-67
2023/04/27 02:20:24;;;;;;;5.95;2.75;;;;;;;5.30;63.54;101308.88;7395804;19;20508;-67
2023/04/27 02:22:53;;;;;;;5.53;2.75;;;;;;;5.29;63.51;101307.13;7393858;19;20032;-67
2023/04/27 02:25:21;;;;;;;3.85;2.72;;;;;;;5.28;63.81;101308.00;7395627;19;20015;-66
2023/04/27 02:27:50;;;;;;;5.68;2.42;;;;;;;5.28;63.72;101309.72;7395832;19;20015;-66
2023/04/27 02:30:19;;;;;;;6.80;3.05;;;;;;;5.28;63.64;101314.91;7395442;19;20162;-67
2023/04/27 02:32:50;;;;;;;4.88;2.58;;;;;;;5.27;63.75;101316.66;7393565;19;20019;-68
2023/04/27 02:35:18;;;;;;;4.70;2.38;;;;;;;5.28;63.74;101309.72;7396023;19;20055;-68
2023/04/27 02:37:47;;;;;;;4.43;2.50;;;;;;;5.27;63.69;101311.47;7395191;19;20018;-68
2023/04/27 02:40:15;;;;;;;5.57;2.55;;;;;;;5.25;63.86;101315.75;7395401;19;20022;-68
2023/04/27 02:42:44;;;;;;;3.03;2.35;;;;;;;5.24;63.99;101316.63;7393549;19;20458;-68
2023/04/27 02:45:13;;;;;;;4.95;2.58;;;;;;;5.23;63.97;101314.88;7393334;19;20015;-67
2023/04/27 02:47:41;;;;;;;6.43;2.80;;;;;;;5.21;64.29;101314.00;7395427;19;20028;-67
2023/04/27 02:50:13;;;;;;;6.32;2.45;;;;;;;5.22;64.17;101318.34;7394822;19;20015;-67
2023/04/27 02:52:41;;;;;;;5.10;2.85;;;;;;;5.22;64.29;101315.75;7405635;19;20047;-68
2023/04/27 02:55:10;;;;;;;6.57;2.63;;;;;;;5.21;64.49;101321.81;7407100;19;20070;-67
2023/04/27 02:57:39;;;;;;;4.97;2.35;;;;;;;5.20;64.40;101320.06;7409860;19;20019;-68
2023/04/27 03:00:11;;;;;;;7.93;2.60;;;;;;;5.20;64.45;101318.31;7407699;19;20013;-67
2023/04/27 03:02:39;;;;;;;6.03;3.00;;;;;;;5.18;64.55;101319.16;7407718;19;20015;-67
2023/04/27 03:05:11;;;;;;;5.68;2.53;;;;;;;5.18;64.81;101324.34;7409002;19;20015;-67
2023/04/27 03:07:40;;;;;;;5.97;3.08;;;;;;;5.16;64.82;101332.16;7409390;19;20018;-67
2023/04/27 03:10:09;;;;;;;5.07;2.80;;;;;;;5.15;64.97;101330.41;7408656;19;20035;-68
2023/04/27 03:12:38;;;;;;;7.78;3.00;;;;;;;5.14;65.05;101333.84;7408044;19;20019;-67
2023/04/27 03:15:08;;;;;;;7.30;2.67;;;;;;;5.13;65.36;101336.44;7408930;19;20027;-67
2023/04/27 03:17:36;;;;;;;4.70;3.20;;;;;;;5.10;65.28;101341.63;7408664;19;20041;-67
2023/04/27 03:20:08;;;;;;;5.95;2.85;;;;;;;5.08;65.36;101340.72;7408432;19;20075;-67
2023/04/27 03:22:39;;;;;;;6.32;3.10;;;;;;;5.07;65.60;101337.28;7407827;19;20022;-67
2023/04/27 03:25:08;;;;;;;6.03;2.72;;;;;;;5.05;65.46;101342.47;7406689;19;20432;-66
2023/04/27 03:27:37;;;;;;;4.40;2.50;;;;;;;5.05;65.28;101345.06;7408474;19;20019;-67
2023/04/27 03:30:06;;;;;;;4.95;3.42;;;;;;;5.04;65.47;101343.31;7406378;19;20031;-67
2023/04/27 03:32:35;;;;;;;6.28;2.72;;;;;;;5.05;65.47;101346.78;7407731;19;20018;-67
2023/04/27 03:35:04;;;;;;;4.80;2.75;;;;;;;5.05;65.58;101358.06;7407480;19;20011;-67
2023/04/27 03:37:33;;;;;;;6.05;3.00;;;;;;;5.05;65.64;101359.78;7407598;19;20496;-66
2023/04/27 03:40:06;;;;;;;7.95;2.72;;;;;;;5.04;66.10;101358.03;7407888;19;20014;-68
2023/04/27 03:42:34;;;;;;;4.18;2.60;;;;;;;5.02;65.95;101360.63;7405615;19;20506;-68
2023/04/27 03:45:03;;;;;;;6.25;3.30;;;;;;;5.02;66.18;101365.81;7405316;19;20024;-67
2023/04/27 03:47:32;;;;;;;6.63;3.30;;;;;;;5.00;66.23;101370.13;7407851;19;20022;-67
2023/04/27 03:50:01;;;;;;;5.45;2.97;;;;;;;4.99;66.55;101365.81;7406820;19;20018;-68
2023/04/27 03:52:36;;;;;;;4.68;2.90;;;;;;;4.98;67.11;101369.25;7407392;19;20022;-69
2023/04/27 03:55:14;;;;;;;6.10;2.85;;;;;;;4.97;66.71;101371.84;7407897;19;20086;-67
2023/04/27 03:57:43;;;;;;;11.43;3.42;;;;;;;4.97;66.48;101374.44;7408172;19;20078;-68
2023/04/27 04:00:13;;;;;;;7.45;3.55;;;;;;;4.97;66.64;101377.03;7406691;19;20010;-68
2023/04/27 04:02:42;;;;;;;4.50;3.00;;;;;;;4.96;66.57;101375.28;7403731;19;20018;-67
2023/04/27 04:05:13;;;;;;;8.15;3.53;;;;;;;4.95;66.85;101371.78;7399913;19;20382;-67
2023/04/27 04:07:42;;;;;;;7.82;4.15;;;;;;;4.95;66.80;101379.59;7400606;19;20016;-68
2023/04/27 04:10:13;;;;;;;5.72;2.97;;;;;;;4.95;67.02;101384.78;7400063;19;20018;-68
2023/04/27 04:12:42;;;;;;;8.52;3.38;;;;;;;4.96;67.07;101388.28;7398907;19;20494;-67
2023/04/27 04:15:11;;;;;;;4.88;3.20;;;;;;;4.94;67.06;101393.47;7399444;19;20074;-67
2023/04/27 04:17:39;;;;;;;6.80;3.33;;;;;;;4.94;67.13;101388.28;7399818;19;20074;-68
2023/04/27 04:20:10;;;;;;;6.25;3.35;;;;;;;4.94;67.17;101395.19;7399614;19;20490;-68
2023/04/27 04:22:38;;;;;;;6.90;3.58;;;;;;;4.94;67.27;101401.28;7398738;19;20025;-68
2023/04/27 04:25:08;;;;;;;5.28;2.97;;;;;;;4.95;67.32;101397.81;7399314;19;20553;-67
2023/04/27 04:27:39;;;;;;;8.43;3.30;;;;;;;4.96;67.29;101398.69;7399441;19;20048;-67
2023/04/27 04:30:09;;;;;;;6.72;3.33;;;;;;;4.96;67.26;101399.56;7399021;19;20432;-67
2023/04/27 04:32:39;;;;;;;8.48;3.35;;;;;;;4.97;67.23;101403.91;7398549;19;20010;-67
2023/04/27 04:35:07;;;;;;;7.35;3.00;;;;;;;4.99;67.59;101404.81;7398963;19;20382;-68
2023/04/27 04:37:36;;;;;;;4.20;3.20;;;;;;;5.00;67.72;101405.66;7398989;19;20018;-68
2023/04/27 04:40:10;;;;;;;4.43;3.33;;;;;;;5.01;67.70;101410.03;7398939;19;20074;-67
2023/04/27 04:42:41;;;;;;;10.20;4.00;;;;;;;5.03;67.66;101410.91;7396457;19;20454;-68
2023/04/27 04:45:10;;;;;;;6.55;3.20;;;;;;;5.05;67.71;101412.69;7399520;19;20090;-68
2023/04/27 04:47:39;;;;;;;6.60;3.85;;;;;;;5.07;67.84;101410.09;7398554;19;20026;-68
2023/04/27 04:50:09;;;;;;;8.40;3.70;;;;;;;5.08;67.80;101417.06;7398963;19;20046;-68
2023/04/27 04:52:38;;;;;;;7.95;3.38;;;;;;;5.09;67.68;101413.56;7396457;19;20019;-69
2023/04/27 04:55:07;;;;;;;5.28;3.05;;;;;;;5.08;67.70;101408.34;7398066;19;20019;-68
2023/04/27 04:57:36;;;;;;;5.75;2.75;;;;;;;5.13;67.92;101422.28;7397953;19;20474;-68
2023/04/27 05:00:10;;;;;;;6.25;2.88;;;;;;;5.15;67.95;101420.59;7397166;19;20022;-69
2023/04/27 05:02:39;;;;;;;;;;;;;;;5.18;68.17;101423.22;7396251;19;20014;-68
2023/04/27 05:05:07;;;;;;;7.43;2.97;;;;;;;5.18;67.54;101418.00;7398087;19;19922;-66
2023/04/27 05:07:36;;;;;;;5.10;3.28;;;;;;;5.21;67.61;101413.72;7397246;19;20018;-67
2023/04/27 05:10:05;;;;;;;7.45;3.13;;;;;;;5.25;67.50;101416.38;7398052;19;20433;-68
2023/04/27 05:12:33;;;;;;;6.90;2.90;;;;;;;5.27;67.54;101415.53;7394765;19;20485;-68
2023/04/27 05:15:02;;;;;;;6.60;3.00;;;;;;;5.31;67.66;101422.50;7395875;19;20015;-68
2023/04/27 05:17:33;;;;;;;9.57;3.10;;;;;;;5.33;67.49;101414.72;7396791;19;20023;-67
2023/04/27 05:20:03;;;;;;;6.75;2.95;;;;;;;5.35;67.61;101416.47;7396457;19;20513;-68
2023/04/27 05:22:32;;;;;;;4.57;2.72;;;;;;;5.38;67.55;101416.53;7397615;19;20019;-68
2023/04/27 05:25:00;;;;;;;7.20;3.03;;;;;;;5.42;67.44;101413.94;7396519;19;20031;-67
2023/04/27 05:27:29;;;;;;;8.35;3.17;;;;;;;5.45;67.42;101419.19;7394817;19;20427;-68
2023/04/27 05:29:57;;;;;;;4.93;2.58;;;;;;;5.47;67.28;101414.84;7398253;19;20015;-68
2023/04/27 05:32:26;;;;;;;4.78;2.72;;;;;;;5.52;67.17;101419.25;7396839;19;20082;-69
2023/04/27 05:34:57;;;;;;;6.50;3.75;;;;;;;5.55;67.30;101414.06;7397548;19;20070;-67
2023/04/27 05:37:25;;;;;;;4.93;2.97;;;;;;;5.62;66.96;101427.16;7397635;19;20026;-69
2023/04/27 05:39:54;;;;;;;7.15;2.67;;;;;;;5.68;67.08;101422.00;7397157;19;20018;-68
2023/04/27 05:42:22;;;;;;;6.82;3.10;;;;;;;5.73;66.78;101416.84;7396050;19;20556;-69
2023/04/27 05:44:50;;;;;;;6.68;3.38;;;;;;;5.78;66.63;101418.63;7396714;19;20074;-68
2023/04/27 05:47:19;;;;;;;6.55;3.13;;;;;;;5.83;66.46;101424.75;7400072;19;20074;-69
2023/04/27 05:49:52;;;;;;;10.43;3.35;;;;;;;5.89;66.48;101429.16;7398495;19;20050;-69
2023/04/27 05:52:28;;;;;;;4.88;3.15;;;;;;;5.95;66.36;101431.81;7398043;19;20021;-69
2023/04/27 05:54:57;;;;;;;8.57;3.55;;;;;;;6.00;66.06;101427.53;7396922;19;20041;-68
2023/04/27 05:57:26;;;;;;;4.93;2.92;;;;;;;6.06;66.06;101431.91;7394416;19;20039;-68
2023/04/27 05:59:55;;;;;;;5.60;2.72;;;;;;;6.13;66.08;101435.41;7395049;19;20028;-68
2023/04/27 06:02:24;;;;;;;4.80;2.83;;;;;;;6.19;65.68;101443.28;7395101;19;20014;-68
2023/04/27 06:04:52;;;;;;;6.28;3.00;;;;;;;6.26;65.77;101433.81;7395858;19;20018;-67
2023/04/27 06:07:23;;;;;;;5.82;3.28;;;;;;;6.31;65.45;101434.72;7395464;19;20066;-68
2023/04/27 06:09:52;;;;;;;7.65;3.30;;;;;;;6.36;65.40;101433.88;7396153;19;20026;-68
2023/04/27 06:12:20;;;;;;;8.60;3.03;;;;;;;6.42;65.38;101445.19;7394089;19;20553;-69
2023/04/27 06:14:49;;;;;;;7.47;2.67;;;;;;;6.48;65.25;101445.22;7396742;19;20086;-68
2023/04/27 06:17:17;;;;;;;6.75;3.17;;;;;;;6.54;65.21;101450.50;7393813;19;20419;-68
2023/04/27 06:19:45;;;;;;;6.15;2.92;;;;;;;6.60;64.92;101442.72;7395819;19;20090;-67
2023/04/27 06:22:14;;;;;;;9.35;3.00;;;;;;;6.66;64.83;101444.47;7393353;19;20506;-68
2023/04/27 06:24:45;;;;;;;10.43;2.95;;;;;;;6.72;64.62;101443.63;7393210;19;20041;-67
2023/04/27 06:27:14;;;;;;;5.57;3.08;;;;;;;6.76;64.44;101448.91;7390160;19;20015;-67
2023/04/27 06:29:43;;;;;;;4.68;2.53;;;;;;;6.80;64.52;101442.81;7395030;19;20025;-68
2023/04/27 06:32:11;;;;;;;7.30;2.78;;;;;;;6.85;64.26;101448.94;7395489;19;20042;-67
2023/04/27 06:34:40;;;;;;;7.40;3.08;;;;;;;6.88;64.07;101453.28;7392844;19;20094;-68
2023/04/27 06:37:09;;;;;;;6.63;3.03;;;;;;;6.94;63.68;101455.06;7395012;19;20026;-67
2023/04/27 06:39:38;;;;;;;6.20;2.63;;;;;;;6.96;63.34;101462.03;7393034;19;20089;-69
2023/04/27 06:42:09;;;;;;;9.38;2.90;;;;;;;6.98;62.58;101470.72;7394241;19;20017;-67
2023/04/27 06:44:37;;;;;;;9.30;2.70;;;;;;;6.98;62.08;101459.44;7393093;19;20018;-67
2023/04/27 06:47:06;;;;;;;7.05;2.80;;;;;;;6.98;61.61;101462.03;7393125;19;20023;-68
2023/04/27 06:49:34;;;;;;;7.50;2.90;;;;;;;6.97;61.61;101470.72;7394813;19;20078;-68
2023/04/27 06:52:04;;;;;;;8.43;2.78;;;;;;;6.97;60.92;101466.38;7394240;19;20028;-68
2023/04/27 06:54:33;;;;;;;5.35;2.13;;;;;;;6.98;60.96;101473.34;7392889;19;20017;-67
2023/04/27 06:57:02;;;;;;;7.22;2.80;;;;;;;7.01;60.82;101473.38;7394011;19;20418;-66
2023/04/27 06:59:33;;;;;;;5.65;2.60;;;;;;;7.04;60.85;101471.63;7391912;19;20485;-66
2023/04/27 07:02:01;;;;;;;12.48;3.13;;;;;;;7.07;60.99;101466.44;7392930;19;20108;-67
2023/04/27 07:04:30;;;;;;;4.50;2.20;;;;;;;7.10;60.84;101471.66;7391919;19;20046;-67
2023/04/27 07:06:58;;;;;;;9.55;2.45;;;;;;;7.18;60.65;101475.19;7394099;19;20074;-68
2023/04/27 07:09:27;;;;;;;7.43;2.60;;;;;;;7.27;60.50;101477.81;7393664;19;20014;-68
2023/04/27 07:11:57;;;;;;;7.32;3.20;;;;;;;7.38;60.07;101476.97;7394323;19;20010;-69
2023/04/27 07:14:26;;;;;;;10.93;3.60;;;;;;;7.43;60.13;101464.81;7392443;19;20033;-68
2023/04/27 07:16:57;;;;;;;8.88;3.33;;;;;;;7.52;59.42;101467.47;7393317;19;20482;-68
2023/04/27 07:19:26;;;;;;;7.55;3.17;;;;;;;7.59;59.36;101466.56;7393634;19;20037;-68
2023/04/27 07:21:54;;;;;;;7.22;3.45;;;;;;;7.68;58.95;101467.47;7394004;19;20074;-67
2023/04/27 07:24:23;;;;;;;9.13;3.40;;;;;;;7.77;58.59;101480.53;7391972;19;20054;-67
2023/04/27 07:26:51;;;;;;;9.25;3.47;;;;;;;7.81;57.69;101477.09;7393744;19;20133;-67
2023/04/27 07:29:20;;;;;;;8.80;3.33;;;;;;;7.84;58.26;101477.09;7391655;19;20365;-68
2023/04/27 07:31:48;;;;;;;5.57;2.88;;;;;;;7.89;58.04;101477.09;7394083;19;20011;-68
2023/04/27 07:34:19;;;;;;;8.55;3.88;;;;;;;7.93;57.67;101477.09;7391264;19;20427;-68
2023/04/27 07:36:48;;;;;;;9.25;3.35;;;;;;;8.01;57.39;101476.22;7393284;19;20086;-68
2023/04/27 07:39:19;;;;;;;7.68;3.28;;;;;;;8.04;57.11;101478.81;7400978;19;20006;-68
2023/04/27 07:41:48;;;;;;;8.18;3.15;;;;;;;8.06;57.23;101482.31;7401122;19;20082;-68
2023/04/27 07:44:17;;;;;;;4.47;2.85;;;;;;;8.08;57.47;101473.63;7398247;19;20014;-70
2023/04/27 07:46:46;;;;;;;8.18;2.90;;;;;;;8.11;57.28;101476.25;7400812;19;20021;-67
2023/04/27 07:49:14;;;;;;;5.78;2.80;;;;;;;8.14;57.23;101488.44;7400348;19;20553;-68
2023/04/27 07:51:45;;;;;;;6.38;2.67;;;;;;;8.15;56.83;101487.53;7400381;19;20015;-68
2023/04/27 07:54:14;;;;;;;6.15;2.97;;;;;;;8.14;56.79;101483.22;7398499;19;20078;-67
2023/04/27 07:56:43;;;;;;;10.18;3.05;;;;;;;8.13;56.13;101495.41;7400578;19;20420;-68
2023/04/27 07:59:13;;;;;;;7.28;2.72;;;;;;;8.12;56.11;101498.88;7400156;19;20406;-69
2023/04/27 08:01:55;;;;;;;7.20;3.13;;;;;;;8.08;55.10;101494.53;7397606;19;20011;-67
2023/04/27 08:04:23;;;;;;;8.68;2.65;;;;;;;8.10;55.79;101502.34;7397778;19;20093;-67
2023/04/27 08:06:54;;;;;;;7.47;2.63;;;;;;;8.10;55.41;101495.41;7399248;19;20018;-68
2023/04/27 08:09:23;;;;;;;6.43;3.05;;;;;;;8.14;55.64;101498.91;7396721;19;20018;-68
2023/04/27 08:11:51;;;;;;;5.55;3.30;;;;;;;8.18;55.24;101502.38;7397467;19;20018;-68
2023/04/27 08:14:20;;;;;;;5.30;3.20;;;;;;;8.20;55.62;101504.13;7397037;19;20082;-68
2023/04/27 08:16:50;;;;;;;7.55;2.88;;;;;;;8.21;53.83;101500.63;7399462;19;20520;-69
2023/04/27 08:19:19;;;;;;;6.85;2.78;;;;;;;8.22;55.06;101494.53;7400054;19;20034;-68
2023/04/27 08:21:48;;;;;;;6.63;2.40;;;;;;;8.22;55.29;101497.13;7396547;19;20486;-68
2023/04/27 08:24:19;;;;;;;4.63;2.72;;;;;;;8.21;55.02;101498.00;7396897;19;20490;-69
2023/04/27 08:26:48;;;;;;;7.07;3.13;;;;;;;8.19;55.25;101502.38;7399636;19;20014;-68
2023/04/27 08:29:16;;;;;;;4.35;2.88;;;;;;;8.17;55.42;101504.13;7397239;19;20089;-69
2023/04/27 08:31:45;;;;;;;9.07;2.97;;;;;;;8.19;55.33;101511.94;7399622;19;20073;-66
2023/04/27 08:34:13;;;;;;;8.30;3.00;;;;;;;8.22;55.08;101497.13;7397336;19;20169;-67
2023/04/27 08:36:42;;;;;;;8.27;3.10;;;;;;;8.21;55.06;101508.47;7398881;19;20098;-68
2023/04/27 08:39:10;;;;;;;5.38;2.47;;;;;;;8.23;55.21;101504.13;7398321;19;20078;-67
2023/04/27 08:41:44;;;;;;;6.07;2.60;;;;;;;8.27;54.47;101511.09;7398713;19;20018;-71
2023/04/27 08:44:12;;;;;;;8.75;3.25;;;;;;;8.24;54.77;101505.88;7396922;19;20029;-73
2023/04/27 08:46:41;;;;;;;8.68;3.42;;;;;;;8.20;54.65;101496.28;7398344;19;20035;-70
2023/04/27 08:49:10;;;;;;;5.65;2.85;;;;;;;8.18;54.74;101492.78;7397072;19;20018;-71
2023/04/27 08:51:39;;;;;;;6.55;3.17;;;;;;;8.11;55.12;101501.50;7395840;19;20458;-71
2023/04/27 08:54:07;;;;;;;8.65;3.60;;;;;;;8.09;54.99;101504.13;7396748;19;20022;-70
2023/04/27 08:56:36;;;;;;;6.00;3.17;;;;;;;8.07;55.13;101500.63;7398630;19;20090;-71
2023/04/27 08:59:16;;;;;;;9.32;3.30;;;;;;;8.06;54.91;101504.13;7395848;19;20023;-68
2023/04/27 09:01:48;;;;;;;7.82;4.78;;;;;;;8.04;55.08;101489.28;7397269;19;20074;-68
2023/04/27 09:04:18;;;;;;;13.27;4.43;;;;;;;8.13;54.89;101494.53;7396946;19;20026;-70
2023/04/27 09:06:48;;;;;;;7.25;3.47;;;;;;;8.22;54.59;101489.28;7396477;19;20045;-70
2023/04/27 09:09:24;;;;;;;6.93;2.80;;;;;;;8.31;54.25;101488.44;7397990;19;20509;-69
2023/04/27 09:11:52;;;;;;;5.05;2.80;;;;;;;8.40;53.76;101492.78;7399422;19;20029;-69
2023/04/27 09:14:25;;;;;;;7.95;3.05;;;;;;;8.50;53.59;101485.84;7395427;19;20022;-68
2023/04/27 09:16:58;;;;;;;7.18;2.80;;;;;;;8.58;52.27;101491.91;7398484;19;20015;-69
2023/04/27 09:19:27;;;;;;;6.22;2.67;;;;;;;8.62;52.92;101478.84;7398644;19;20102;-69
2023/04/27 09:22:06;;;;;;;4.53;2.65;;;;;;;8.67;51.15;101478.84;7397569;19;20078;-71
2023/04/27 09:24:35;;;;;;;6.97;3.05;;;;;;;8.67;51.98;101481.47;7395714;19;20019;-71
2023/04/27 09:27:04;;;;;;;5.25;2.70;;;;;;;8.65;51.88;101467.50;7397577;19;20025;-69
2023/04/27 09:29:40;;;;;;;5.22;2.55;;;;;;;8.67;51.85;101475.34;7395726;19;20034;-70
2023/04/27 09:32:19;;;;;;;8.38;3.08;;;;;;;8.66;51.63;101478.81;7398335;19;20074;-70
2023/04/27 09:34:48;;;;;;;7.38;2.85;;;;;;;8.73;52.25;101470.09;7398191;19;20018;-71
2023/04/27 09:37:17;;;;;;;7.30;2.83;;;;;;;8.83;51.97;101469.19;7397744;19;20099;-70
2023/04/27 09:39:48;;;;;;;7.95;2.97;;;;;;;8.92;51.08;101466.56;7397651;19;20426;-72
2023/04/27 09:42:17;;;;;;;4.25;2.20;;;;;;;8.98;50.93;101464.81;7395724;19;20019;-70
2023/04/27 09:44:49;;;;;;;10.32;4.63;;;;;;;9.00;48.18;101465.63;7395113;19;20074;-70
2023/04/27 09:47:17;;;;;;;5.57;3.03;;;;;;;8.99;49.97;101462.16;7396971;19;20485;-70
2023/04/27 09:49:46;;;;;;;4.70;2.65;;;;;;;8.99;49.86;101470.03;7394956;19;20544;-69
2023/04/27 09:52:14;;;;;;;8.55;2.92;;;;;;;8.99;49.83;101462.16;7397444;19;20035;-69
2023/04/27 09:54:43;;;;;;;3.53;2.45;;;;;;;8.97;49.51;101469.13;7396368;19;20015;-69
2023/04/27 09:57:22;;;;;;;6.28;2.38;;;;;;;8.95;48.84;101469.16;7396669;19;20017;-70
2023/04/27 10:00:09;;;;;;;6.82;2.90;;;;;;;8.92;49.02;101469.19;7396462;19;20356;-69
2023/04/27 10:02:47;;;;;;;5.10;2.88;;;;;;;8.92;49.73;101469.19;7395397;19;20010;-69
2023/04/27 10:05:30;;;;;;;7.32;3.80;;;;;;;8.98;50.08;101462.19;7397938;19;20025;-71
2023/04/27 10:07:59;;;;;;;9.23;4.97;;;;;;;9.05;50.71;101462.16;7396509;19;20019;-70
2023/04/27 10:10:28;;;;;;;8.30;3.40;;;;;;;9.16;50.66;101461.22;7395968;19;20011;-70
2023/04/27 10:13:02;;;;;;;6.45;3.20;;;;;;;9.26;50.62;101455.06;7395568;19;20070;-68
2023/04/27 10:15:33;;;;;;;10.57;4.15;;;;;;;9.33;50.44;101450.69;7395525;19;20019;-69
2023/04/27 10:18:07;;;;;;;5.15;2.65;;;;;;;9.39;49.97;101464.63;7395132;19;20031;-69
2023/04/27 10:20:39;;;;;;;5.47;2.67;;;;;;;9.33;49.89;101461.16;7396045;19;20041;-69
2023/04/27 10:23:08;;;;;;;8.98;3.20;;;;;;;9.29;50.58;101462.94;7393718;19;20025;-69
2023/04/27 10:25:41;;;;;;;5.53;2.95;;;;;;;9.31;50.70;101462.91;7393516;19;20022;-70
2023/04/27 10:28:10;;;;;;;6.18;3.05;;;;;;;9.36;50.77;101466.38;7395687;19;20015;-71
2023/04/27 10:30:47;;;;;;;9.27;3.15;;;;;;;9.44;50.75;101456.75;7395023;19;20530;-70
2023/04/27 10:33:19;;;;;;;10.18;3.47;;;;;;;9.57;50.66;101455.78;7393933;19;20486;-73
2023/04/27 10:35:56;;;;;;;5.32;3.08;;;;;;;9.68;48.89;101463.56;7394585;19;20022;-70
2023/04/27 10:38:31;;;;;;;6.50;2.40;;;;;;;9.77;49.02;101454.78;7393825;19;20039;-70
2023/04/27 10:41:02;;;;;;;3.95;2.20;;;;;;;9.88;48.86;101463.44;7395220;19;20010;-70
2023/04/27 10:43:32;;;;;;;6.70;2.88;;;;;;;9.97;48.53;101453.75;7394842;19;20018;-70
2023/04/27 10:46:13;;;;;;;6.25;2.42;;;;;;;10.06;47.30;101453.66;7393353;19;20097;-69
2023/04/27 10:48:42;;;;;;;7.75;2.63;;;;;;;10.14;48.05;101443.13;7395922;19;20026;-70
2023/04/27 10:51:11;;;;;;;8.68;2.78;;;;;;;10.31;47.73;101450.84;7395006;19;20014;-71
2023/04/27 10:53:39;;;;;;;6.85;3.05;;;;;;;10.46;47.57;101465.59;7393680;19;20486;-70
2023/04/27 10:56:08;;;;;;;9.07;3.78;;;;;;;10.51;47.82;101455.94;7394968;19;20035;-70
2023/04/27 10:58:37;;;;;;;8.88;2.90;;;;;;;10.43;47.29;101442.91;7394663;19;20411;-70
2023/04/27 11:01:32;;;;;;;4.68;3.63;;;;;;;10.32;45.15;101456.06;7392543;19;20022;-69
2023/04/27 11:04:02;;;;;;;8.00;3.47;;;;;;;10.25;45.08;101457.88;7393567;19;20027;-69
2023/04/27 11:06:32;;;;;;;5.38;2.20;;;;;;;10.23;46.10;101451.78;7392374;19;20070;-69
2023/04/27 11:09:00;;;;;;;6.15;2.75;;;;;;;10.26;46.28;101450.88;7393275;19;20017;-71
2023/04/27 11:11:29;;;;;;;8.13;2.97;;;;;;;10.34;46.24;101450.84;7393656;19;20425;-71
2023/04/27 11:13:57;;;;;;;6.63;2.78;;;;;;;10.50;45.66;101456.81;7397036;19;20427;-70
2023/04/27 11:16:28;;;;;;;3.75;2.30;;;;;;;10.61;43.83;101462.81;7401299;19;20014;-71
2023/04/27 11:18:57;;;;;;;4.72;2.45;;;;;;;10.64;43.56;101461.91;7401739;19;20090;-72
2023/04/27 11:21:27;;;;;;;5.40;2.75;;;;;;;10.60;43.46;101458.44;7400475;19;20082;-71
2023/04/27 11:23:56;;;;;;;4.65;2.22;;;;;;;10.47;43.74;101452.47;7398384;19;20525;-70
2023/04/27 11:26:26;;;;;;;5.40;2.58;;;;;;;10.35;43.39;101468.28;7398083;19;20022;-70
2023/04/27 11:29:01;;;;;;;3.85;2.35;;;;;;;10.20;43.64;101470.16;7401799;19;20106;-69
2023/04/27 11:31:42;;;;;;;4.90;2.38;;;;;;;10.09;43.39;101472.00;7401595;19;20486;-69
2023/04/27 11:34:11;;;;;;;6.45;2.72;;;;;;;10.06;43.99;101466.78;7399379;19;20018;-69
2023/04/27 11:36:40;;;;;;;5.47;2.90;;;;;;;10.03;44.17;101466.81;7397445;19;20074;-69
2023/04/27 11:39:08;;;;;;;6.05;2.60;;;;;;;10.03;44.06;101477.31;7397802;19;20031;-69
2023/04/27 11:41:38;;;;;;;5.05;2.78;;;;;;;10.02;44.35;101476.44;7397734;19;20380;-68
2023/04/27 11:44:08;;;;;;;6.25;3.40;;;;;;;10.05;44.44;101473.78;7398608;19;20018;-69